createdAt,value
2023-02-03T00:00:52.667Z,19.58
2023-02-03T00:03:20.737Z,15.52
2023-02-03T00:05:48.936Z,20.23
2023-02-03T00:08:18.482Z,20.83
2023-02-03T00:10:48.336Z,15.57
2023-02-03T00:13:16.809Z,21.05
2023-02-03T00:15:44.812Z,21.13
2023-02-03T00:18:13.060Z,19.00
2023-02-03T00:20:41.041Z,20.63
2023-02-03T00:23:11.112Z,18.90
2023-02-03T00:25:39.629Z,14.85
2023-02-03T00:28:08.999Z,18.55
2023-02-03T00:30:38.004Z,15.95
2023-02-03T00:33:06.220Z,23.67
2023-02-03T00:35:34.237Z,22.10
2023-02-03T00:38:02.195Z,20.65
2023-02-03T00:40:30.388Z,17.35
2023-02-03T00:42:58.572Z,19.88
2023-02-03T00:45:27.936Z,18.77
2023-02-03T00:47:56.031Z,23.98
2023-02-03T00:50:24.205Z,18.10
2023-02-03T00:52:52.411Z,20.70
2023-02-03T00:55:20.423Z,20.75
2023-02-03T00:57:48.376Z,18.30
2023-02-03T01:00:17.375Z,18.08
2023-02-03T01:02:46.810Z,17.30
2023-02-03T01:05:14.769Z,20.40
2023-02-03T01:07:42.790Z,17.42
2023-02-03T01:10:11.839Z,15.93
2023-02-03T01:12:39.828Z,16.83
2023-02-03T01:15:08.600Z,15.77
2023-02-03T01:17:36.576Z,19.65
2023-02-03T01:20:06.673Z,17.45
2023-02-03T01:22:34.655Z,16.63
2023-02-03T01:25:02.625Z,13.25
2023-02-03T01:27:30.631Z,16.10
2023-02-03T01:29:58.643Z,11.40
2023-02-03T01:32:26.733Z,14.80
2023-02-03T01:34:54.734Z,13.68
2023-02-03T01:37:24.121Z,15.20
2023-02-03T01:39:52.111Z,10.60
2023-02-03T01:42:20.083Z,14.43
2023-02-03T01:44:51.200Z,12.43
2023-02-03T01:47:29.121Z,11.23
2023-02-03T01:50:03.948Z,10.10
2023-02-03T01:52:34.504Z,11.27
2023-02-03T01:55:06.718Z,10.52
2023-02-03T01:57:37.757Z,9.57
2023-02-03T02:00:07.924Z,12.27
2023-02-03T02:02:36.540Z,13.45
2023-02-03T02:05:07.305Z,13.57
2023-02-03T02:07:38.759Z,16.13
2023-02-03T02:10:07.770Z,10.13
2023-02-03T02:12:35.801Z,16.05
2023-02-03T02:15:04.697Z,14.07
2023-02-03T02:17:49.829Z,9.10
2023-02-03T02:20:50.941Z,14.30
2023-02-03T02:23:52.720Z,12.57
2023-02-03T02:26:58.677Z,12.52
2023-02-03T02:30:17.050Z,11.75
2023-02-03T02:33:05.348Z,11.40
2023-02-03T02:35:49.500Z,10.27
2023-02-03T02:38:26.942Z,12.75
2023-02-03T02:41:03.961Z,13.88
2023-02-03T02:43:42.200Z,10.55
2023-02-03T02:46:14.708Z,10.63
2023-02-03T02:48:49.037Z,10.15
2023-02-03T02:51:18.109Z,11.93
2023-02-03T02:53:50.465Z,11.40
2023-02-03T02:58:50.707Z,16.85
2023-02-03T03:01:19.232Z,10.23
2023-02-03T03:03:49.302Z,8.52
2023-02-03T03:06:23.532Z,9.23
2023-02-03T03:08:57.188Z,11.05
2023-02-03T03:11:27.933Z,13.75
2023-02-03T03:13:57.503Z,9.88
2023-02-03T03:16:28.550Z,10.88
2023-02-03T03:19:02.406Z,12.82
2023-02-03T03:21:37.220Z,14.13
2023-02-03T03:24:09.053Z,14.40
2023-02-03T03:26:42.826Z,12.48
2023-02-03T03:29:16.338Z,10.02
2023-02-03T03:31:45.509Z,12.45
2023-02-03T03:34:15.837Z,11.30
2023-02-03T03:36:47.223Z,10.05
2023-02-03T03:39:23.390Z,9.02
2023-02-03T03:41:59.025Z,11.70
2023-02-03T03:44:31.953Z,11.35
2023-02-03T03:47:07.875Z,10.20
2023-02-03T03:49:38.540Z,10.25
2023-02-03T03:52:10.563Z,14.02
2023-02-03T03:54:40.563Z,13.60
2023-02-03T03:57:15.471Z,10.88
2023-02-03T03:59:46.846Z,15.98
2023-02-03T04:02:15.683Z,11.80
2023-02-03T04:04:47.065Z,11.82
2023-02-03T04:07:15.793Z,11.32
2023-02-03T04:09:44.043Z,12.77
2023-02-03T04:12:23.422Z,12.57
2023-02-03T04:14:51.387Z,10.27
2023-02-03T04:17:20.164Z,8.55
2023-02-03T04:19:49.971Z,12.82
2023-02-03T04:22:17.913Z,11.65
2023-02-03T04:24:45.879Z,12.27
2023-02-03T04:27:13.839Z,10.35
2023-02-03T04:29:41.803Z,10.40
2023-02-03T04:32:09.761Z,11.90
2023-02-03T04:34:37.762Z,12.60
2023-02-03T04:37:07.052Z,12.13
2023-02-03T04:39:35.021Z,9.38
2023-02-03T04:42:02.990Z,14.50
2023-02-03T04:44:31.064Z,12.05
2023-02-03T04:46:59.070Z,14.68
2023-02-03T04:49:27.049Z,12.13
2023-02-03T04:51:54.993Z,10.00
2023-02-03T04:54:24.519Z,15.25
2023-02-03T04:56:52.535Z,14.73
2023-02-03T04:59:20.611Z,13.90
2023-02-03T05:01:48.586Z,12.52
2023-02-03T05:04:16.689Z,14.57
2023-02-03T05:06:44.736Z,15.52
2023-02-03T05:09:13.045Z,20.90
2023-02-03T05:11:42.452Z,11.43
2023-02-03T05:14:10.824Z,13.15
2023-02-03T05:16:38.962Z,14.07
2023-02-03T05:19:07.590Z,10.95
2023-02-03T05:21:36.081Z,11.63
2023-02-03T05:24:07.008Z,11.43
2023-02-03T05:26:36.191Z,11.52
2023-02-03T05:29:06.019Z,12.68
2023-02-03T05:31:34.984Z,13.07
2023-02-03T05:34:03.518Z,12.27
2023-02-03T05:36:31.872Z,11.40
2023-02-03T05:39:00.382Z,10.93
2023-02-03T05:41:46.517Z,13.63
2023-02-03T05:44:16.364Z,15.43
2023-02-03T05:46:45.023Z,18.33
2023-02-03T05:49:13.467Z,13.95
2023-02-03T05:51:42.708Z,13.10
2023-02-03T05:54:10.869Z,15.00
2023-02-03T05:56:39.447Z,14.32
2023-02-03T05:59:08.070Z,14.00
2023-02-03T06:01:37.738Z,17.15
2023-02-03T06:04:06.581Z,16.65
2023-02-03T06:06:34.795Z,18.17
2023-02-03T06:09:03.984Z,13.93
2023-02-03T06:11:32.027Z,16.17
2023-02-03T06:14:00.815Z,19.10
2023-02-03T06:16:29.923Z,19.00
2023-02-03T06:19:00.839Z,16.98
2023-02-03T06:21:29.569Z,18.55
2023-02-03T06:23:57.623Z,20.65
2023-02-03T06:26:26.122Z,14.73
2023-02-03T06:28:54.251Z,15.55
2023-02-03T06:31:22.444Z,16.05
2023-02-03T06:33:50.575Z,16.08
2023-02-03T06:36:19.912Z,17.90
2023-02-03T06:38:47.905Z,14.38
2023-02-03T06:41:16.110Z,15.90
2023-02-03T06:43:44.121Z,15.93
2023-02-03T06:46:12.593Z,14.98
2023-02-03T06:48:40.669Z,16.40
2023-02-03T06:51:08.656Z,15.82
2023-02-03T06:53:38.028Z,17.63
2023-02-03T06:56:06.596Z,14.13
2023-02-03T06:58:34.571Z,16.02
2023-02-03T07:01:02.560Z,12.82
2023-02-03T07:03:30.553Z,16.88
2023-02-03T07:05:58.537Z,19.52
2023-02-03T07:08:26.579Z,17.85
2023-02-03T07:10:56.490Z,12.32
2023-02-03T07:13:24.526Z,14.50
2023-02-03T07:15:52.534Z,15.30
2023-02-03T07:18:45.941Z,16.83
2023-02-03T07:21:12.833Z,18.23
2023-02-03T07:23:40.987Z,18.67
2023-02-03T07:26:12.118Z,20.48
2023-02-03T07:28:40.106Z,18.70
2023-02-03T07:31:10.330Z,23.08
2023-02-03T07:33:38.528Z,18.20
2023-02-03T07:36:08.192Z,12.77
2023-02-03T07:38:37.993Z,17.02
2023-02-03T07:41:06.531Z,16.63
2023-02-03T07:43:35.926Z,18.73
2023-02-03T07:46:03.985Z,16.63
2023-02-03T07:48:31.934Z,18.67
2023-02-03T07:50:59.927Z,14.63
2023-02-03T07:53:27.955Z,13.65
2023-02-03T07:55:55.986Z,20.10
2023-02-03T07:58:24.009Z,14.57
2023-02-03T08:00:53.534Z,16.58
2023-02-03T08:03:21.649Z,21.40
2023-02-03T08:05:50.090Z,13.68
2023-02-03T08:08:18.279Z,18.73
2023-02-03T08:10:46.259Z,19.02
2023-02-03T08:13:14.532Z,16.00
2023-02-03T08:15:42.516Z,14.20
2023-02-03T08:18:12.661Z,19.92
2023-02-03T08:20:40.985Z,16.40
2023-02-03T08:23:08.990Z,17.67
2023-02-03T08:25:37.037Z,15.32
2023-02-03T08:28:05.474Z,15.25
2023-02-03T08:30:33.537Z,16.92
2023-02-03T08:33:01.570Z,17.35
2023-02-03T08:35:30.972Z,17.80
2023-02-03T08:37:59.019Z,18.95
2023-02-03T08:40:27.274Z,18.58
2023-02-03T08:42:55.884Z,14.57
2023-02-03T08:45:23.876Z,14.52
2023-02-03T08:47:51.879Z,14.00
2023-02-03T08:50:19.953Z,16.20
2023-02-03T08:52:49.381Z,20.83
2023-02-03T08:55:17.715Z,19.13
2023-02-03T08:57:45.990Z,18.23
2023-02-03T09:00:15.215Z,15.23
2023-02-03T09:02:43.224Z,17.15
2023-02-03T09:05:11.915Z,17.15
2023-02-03T09:07:40.094Z,13.50
2023-02-03T09:10:10.446Z,18.55
2023-02-03T09:12:38.461Z,14.55
2023-02-03T09:15:07.099Z,22.13
2023-02-03T09:17:35.119Z,24.52
2023-02-03T09:20:03.146Z,19.63
2023-02-03T09:22:31.224Z,15.25
2023-02-03T09:24:59.348Z,19.95
2023-02-03T09:27:28.930Z,16.88
2023-02-03T09:29:58.529Z,21.00
2023-02-03T09:32:26.652Z,23.17
2023-02-03T09:34:54.731Z,19.15
2023-02-03T09:37:23.017Z,21.65
2023-02-03T09:39:51.314Z,23.55
2023-02-03T09:42:37.741Z,16.17
2023-02-03T09:45:19.132Z,17.30
2023-02-03T09:47:53.992Z,13.80
2023-02-03T09:50:24.955Z,19.67
2023-02-03T09:52:54.041Z,18.17
2023-02-03T09:55:29.096Z,16.90
2023-02-03T09:58:04.545Z,20.00
2023-02-03T10:00:36.649Z,15.23
2023-02-03T10:03:09.756Z,17.50
2023-02-03T10:06:07.813Z,11.65
2023-02-03T10:08:53.414Z,19.65
2023-02-03T10:11:37.057Z,17.92
2023-02-03T10:14:24.933Z,14.18
2023-02-03T10:17:04.520Z,13.07
2023-02-03T10:19:53.607Z,20.00
2023-02-03T10:22:26.149Z,16.83
2023-02-03T10:24:58.913Z,12.95
2023-02-03T10:27:29.205Z,12.02
2023-02-03T10:30:04.469Z,10.18
2023-02-03T10:32:33.750Z,18.00
2023-02-03T10:35:03.078Z,15.05
2023-02-03T10:37:34.193Z,14.07
2023-02-03T10:40:03.363Z,13.23
2023-02-03T10:42:47.372Z,16.73
2023-02-03T10:45:17.256Z,11.52
2023-02-03T10:47:49.642Z,14.23
2023-02-03T10:52:46.543Z,9.82
2023-02-03T10:55:31.190Z,10.95
2023-02-03T10:58:07.557Z,16.77
2023-02-03T11:00:37.092Z,12.73
2023-02-03T11:03:09.925Z,12.10
2023-02-03T11:05:37.924Z,12.80
2023-02-03T11:08:07.664Z,18.38
2023-02-03T11:10:37.814Z,14.30
2023-02-03T11:13:20.341Z,11.82
2023-02-03T11:18:48.323Z,12.93
2023-02-03T11:21:21.849Z,13.98
2023-02-03T11:24:11.024Z,11.32
2023-02-03T11:26:44.591Z,14.77
2023-02-03T11:29:19.580Z,14.70
2023-02-03T11:31:51.648Z,11.25
2023-02-03T11:34:24.269Z,12.85
2023-02-03T11:36:52.361Z,13.27
2023-02-03T11:39:25.400Z,13.80
2023-02-03T11:41:53.693Z,14.50
2023-02-03T11:44:26.171Z,12.10
2023-02-03T11:46:58.730Z,12.88
2023-02-03T11:52:46.081Z,14.75
2023-02-03T11:55:22.877Z,11.65
2023-02-03T11:58:04.887Z,13.38
2023-02-03T12:00:39.795Z,14.30
2023-02-03T12:03:37.688Z,15.43
2023-02-03T12:06:24.262Z,12.00
2023-02-03T12:09:12.750Z,11.13
2023-02-03T12:12:02.133Z,14.73
2023-02-03T12:14:43.962Z,12.82
2023-02-03T12:17:44.595Z,7.80
2023-02-03T12:20:27.457Z,9.40
2023-02-03T12:23:05.055Z,10.15
2023-02-03T12:25:44.919Z,12.48
2023-02-03T12:28:33.636Z,10.68
2023-02-03T12:31:09.940Z,9.57
2023-02-03T12:33:44.559Z,12.30
2023-02-03T12:36:19.931Z,12.02
2023-02-03T12:38:52.884Z,7.88
2023-02-03T12:41:26.828Z,14.70
2023-02-03T12:43:59.745Z,9.52
2023-02-03T12:46:31.084Z,13.18
2023-02-03T12:49:04.260Z,10.15
2023-02-03T12:51:40.263Z,9.95
2023-02-03T12:54:16.361Z,13.20
2023-02-03T12:56:45.772Z,11.00
2023-02-03T12:59:19.193Z,11.02
2023-02-03T13:01:50.569Z,11.63
2023-02-03T13:04:29.619Z,11.03
2023-02-03T13:07:08.025Z,10.77
2023-02-03T13:09:42.630Z,10.85
2023-02-03T13:12:14.838Z,13.55
2023-02-03T13:14:47.863Z,14.68
2023-02-03T13:17:20.493Z,13.90
2023-02-03T13:19:51.050Z,12.38
2023-02-03T13:22:23.866Z,12.27
2023-02-03T13:24:57.966Z,11.18
2023-02-03T13:27:41.156Z,12.32
2023-02-03T13:30:26.181Z,10.18
2023-02-03T13:33:19.309Z,8.32
2023-02-03T13:36:00.555Z,7.68
2023-02-03T13:38:51.887Z,13.73
2023-02-03T13:41:28.197Z,11.10
2023-02-03T13:43:58.649Z,12.95
2023-02-03T13:46:29.772Z,10.93
2023-02-03T13:49:00.565Z,9.80
2023-02-03T13:51:34.705Z,11.63
2023-02-03T13:54:07.755Z,11.38
2023-02-03T13:56:37.077Z,11.07
2023-02-03T13:59:07.242Z,12.10
2023-02-03T14:01:38.829Z,10.80
2023-02-03T14:04:09.104Z,12.27
2023-02-03T14:07:00.899Z,12.55
2023-02-03T14:09:47.367Z,11.07
2023-02-03T14:12:33.244Z,13.43
2023-02-03T14:15:17.524Z,12.98
2023-02-03T14:18:21.260Z,10.50
2023-02-03T14:21:13.390Z,9.32
2023-02-03T14:23:46.556Z,11.20
2023-02-03T14:26:34.971Z,9.68
2023-02-03T14:29:04.167Z,13.52
2023-02-03T14:31:32.956Z,12.07
2023-02-03T14:34:08.854Z,10.35
2023-02-03T14:36:54.994Z,12.07
2023-02-03T14:39:55.225Z,11.52
2023-02-03T14:42:47.078Z,10.77
2023-02-03T14:45:56.331Z,16.40
2023-02-03T14:48:49.254Z,12.52
2023-02-03T14:51:30.521Z,15.57
2023-02-03T14:54:25.023Z,13.38
2023-02-03T14:57:19.468Z,16.80
2023-02-03T14:59:51.045Z,18.02
2023-02-03T15:02:23.229Z,16.73
2023-02-03T15:07:45.321Z,15.85
2023-02-03T15:10:18.938Z,16.83
2023-02-03T15:12:49.744Z,15.63
2023-02-03T15:15:24.822Z,14.27
2023-02-03T15:17:54.598Z,11.02
2023-02-03T15:20:38.794Z,15.40
2023-02-03T15:23:20.548Z,16.60
2023-02-03T15:25:55.226Z,15.82
2023-02-03T15:28:25.030Z,14.63
2023-02-03T15:30:59.838Z,15.32
2023-02-03T15:33:29.418Z,16.42
2023-02-03T15:36:01.982Z,18.85
2023-02-03T15:38:35.372Z,14.27
2023-02-03T15:41:05.022Z,17.25
2023-02-03T15:43:38.326Z,16.92
2023-02-03T15:46:17.776Z,17.52
2023-02-03T15:48:50.617Z,16.42
2023-02-03T15:51:24.060Z,14.45
2023-02-03T15:53:59.005Z,15.98
2023-02-03T15:56:37.787Z,13.82
2023-02-03T15:59:07.266Z,17.58
2023-02-03T16:01:36.702Z,15.23
2023-02-03T16:04:12.448Z,17.55
2023-02-03T16:06:44.925Z,12.68
2023-02-03T16:09:29.398Z,15.50
2023-02-03T16:12:06.923Z,17.92
2023-02-03T16:14:36.704Z,14.98
2023-02-03T16:17:06.878Z,14.35
2023-02-03T16:19:38.397Z,19.55
2023-02-03T16:22:21.565Z,16.52
2023-02-03T16:24:49.687Z,16.02
2023-02-03T16:27:22.445Z,19.70
2023-02-03T16:30:08.003Z,19.80
2023-02-03T16:32:54.911Z,18.27
2023-02-03T16:35:40.527Z,16.70
2023-02-03T16:38:29.984Z,18.52
2023-02-03T16:41:15.495Z,21.55
2023-02-03T16:44:01.122Z,14.85
2023-02-03T16:46:46.720Z,20.00
2023-02-03T16:49:33.358Z,16.48
2023-02-03T16:52:01.616Z,17.63
2023-02-03T16:54:29.729Z,19.13
2023-02-03T16:56:58.876Z,20.75
2023-02-03T16:59:27.028Z,16.67
2023-02-03T17:01:55.139Z,12.65
2023-02-03T17:04:24.585Z,19.05
2023-02-03T17:06:52.684Z,16.02
2023-02-03T17:09:22.142Z,19.83
2023-02-03T17:11:50.447Z,21.90
2023-02-03T17:14:18.702Z,17.85
2023-02-03T17:16:46.757Z,21.08
2023-02-03T17:19:14.849Z,16.75
2023-02-03T17:21:44.367Z,18.52
2023-02-03T17:24:13.409Z,16.08
2023-02-03T17:26:41.614Z,20.75
2023-02-03T17:29:11.565Z,19.08
2023-02-03T17:31:39.616Z,19.35
2023-02-03T17:34:08.046Z,18.52
2023-02-03T17:36:36.109Z,25.35
2023-02-03T17:55:34.417Z,18.63
2023-02-03T17:58:02.464Z,18.30
2023-02-03T18:00:30.857Z,17.58
2023-02-03T18:02:59.184Z,20.15
2023-02-03T18:05:28.834Z,16.98
2023-02-03T18:07:56.939Z,16.90
2023-02-03T18:10:26.271Z,20.95
2023-02-03T18:12:55.640Z,15.80
2023-02-03T18:15:23.722Z,19.40
2023-02-03T18:17:51.689Z,22.00
2023-02-03T18:20:19.927Z,34.95
2023-02-03T18:22:47.960Z,41.88
2023-02-03T18:25:17.355Z,134.00
2023-02-03T18:27:45.967Z,23.35
2023-02-03T18:30:19.471Z,19.50
2023-02-03T18:32:51.816Z,21.42
2023-02-03T18:37:48.258Z,18.98
2023-02-03T18:40:16.765Z,26.48
2023-02-03T18:42:45.018Z,20.20
2023-02-03T18:45:13.493Z,20.10
2023-02-03T18:47:43.088Z,21.77
2023-02-03T18:50:11.474Z,27.02
2023-02-03T18:52:39.534Z,24.15
2023-02-03T18:55:09.190Z,16.20
2023-02-03T18:57:37.448Z,22.00
2023-02-03T19:00:06.232Z,17.98
2023-02-03T19:02:35.348Z,21.65
2023-02-03T19:05:05.405Z,24.75
2023-02-03T19:07:33.489Z,28.17
2023-02-03T19:10:01.904Z,26.23
2023-02-03T19:12:30.059Z,26.20
2023-02-03T19:14:58.084Z,19.77
2023-02-03T19:17:26.222Z,22.05
2023-02-03T19:19:54.324Z,20.63
2023-02-03T19:22:23.802Z,26.73
2023-02-03T19:24:51.912Z,18.52
2023-02-03T19:27:19.935Z,24.17
2023-02-03T19:29:47.942Z,25.27
2023-02-03T19:32:16.004Z,22.73
2023-02-03T19:34:44.109Z,18.38
2023-02-03T19:37:12.185Z,26.63
2023-02-03T19:39:41.837Z,21.55
2023-02-03T19:42:11.735Z,22.00
2023-02-03T19:44:39.847Z,19.15
2023-02-03T19:47:07.861Z,19.00
2023-02-03T19:49:36.241Z,22.65
2023-02-03T19:52:05.348Z,20.60
2023-02-03T19:54:33.337Z,20.90
2023-02-03T19:57:02.929Z,20.90
2023-02-03T19:59:32.005Z,22.92
2023-02-03T20:02:12.645Z,22.55
2023-02-03T20:04:42.042Z,24.70
2023-02-03T20:07:10.100Z,25.40
2023-02-03T20:09:38.326Z,28.48
2023-02-03T20:12:08.421Z,24.55
2023-02-03T20:14:36.798Z,29.58
2023-02-03T20:17:06.191Z,25.98
2023-02-03T20:19:34.458Z,24.23
2023-02-03T20:22:02.513Z,21.77
2023-02-03T20:24:30.543Z,26.38
2023-02-03T20:26:58.825Z,31.83
2023-02-03T20:29:28.530Z,25.15
2023-02-03T20:31:58.753Z,33.53
2023-02-03T20:34:27.492Z,33.15
2023-02-03T20:36:58.591Z,32.90
2023-02-03T20:39:27.732Z,24.70
2023-02-03T20:41:56.160Z,25.45
2023-02-03T20:44:24.560Z,28.75
2023-02-03T20:46:56.075Z,25.48
2023-02-03T20:49:24.471Z,26.17
2023-02-03T20:51:52.524Z,30.35
2023-02-03T20:54:22.502Z,32.22
2023-02-03T20:56:50.921Z,32.72
2023-02-03T20:59:20.346Z,33.50
2023-02-03T21:01:50.782Z,35.97
2023-02-03T21:04:38.475Z,35.35
2023-02-03T21:07:14.944Z,33.88
2023-02-03T21:09:43.436Z,28.83
2023-02-03T21:12:13.290Z,24.88
2023-02-03T21:14:44.542Z,33.65
2023-02-03T21:17:20.790Z,28.38
2023-02-03T21:19:50.590Z,31.83
2023-02-03T21:22:21.890Z,29.95
2023-02-03T21:24:52.557Z,33.42
2023-02-03T21:27:25.167Z,35.92
2023-02-03T21:29:56.616Z,33.70
2023-02-03T21:32:26.759Z,44.72
2023-02-03T21:34:56.204Z,30.13
2023-02-03T21:37:45.002Z,35.20
2023-02-03T21:40:23.979Z,31.25
2023-02-03T21:42:52.800Z,40.33
2023-02-03T21:45:34.374Z,34.47
2023-02-03T21:48:04.038Z,33.30
2023-02-03T21:50:34.952Z,42.88
2023-02-03T21:53:23.439Z,31.58
2023-02-03T21:55:51.590Z,38.40
2023-02-03T21:58:24.529Z,36.40
2023-02-03T22:00:53.991Z,37.15
2023-02-03T22:03:27.770Z,38.78
2023-02-03T22:06:16.318Z,33.30
2023-02-03T22:08:46.780Z,41.83
2023-02-03T22:11:15.938Z,36.65
2023-02-03T22:13:44.594Z,42.55
2023-02-03T22:16:14.407Z,34.85
2023-02-03T22:18:42.678Z,38.25
2023-02-03T22:21:12.656Z,40.78
2023-02-03T22:23:41.364Z,42.30
2023-02-03T22:26:10.962Z,34.00
2023-02-03T22:28:40.293Z,32.55
2023-02-03T22:31:09.248Z,44.15
2023-02-03T22:33:37.600Z,39.47
2023-02-03T22:36:07.427Z,41.60
2023-02-03T22:38:37.656Z,38.13
2023-02-03T22:41:06.437Z,39.83
2023-02-03T22:43:35.467Z,40.83
2023-02-03T22:46:04.894Z,37.83
2023-02-03T22:48:32.998Z,41.20
2023-02-03T22:51:01.423Z,46.85
2023-02-03T22:53:29.834Z,39.63
2023-02-03T22:55:59.264Z,35.80
2023-02-03T22:58:27.377Z,38.03
2023-02-03T23:00:55.527Z,37.58
2023-02-03T23:03:23.644Z,36.90
2023-02-03T23:05:51.710Z,44.35
2023-02-03T23:08:19.714Z,41.40
2023-02-03T23:10:48.342Z,43.50
2023-02-03T23:13:18.068Z,37.22
2023-02-03T23:15:46.387Z,39.08
2023-02-03T23:18:14.757Z,42.15
2023-02-03T23:20:42.997Z,40.85
2023-02-03T23:23:11.342Z,40.60
2023-02-03T23:25:39.702Z,36.58
2023-02-03T23:28:08.261Z,39.55
2023-02-03T23:30:38.102Z,47.40
2023-02-03T23:33:06.143Z,43.25
2023-02-03T23:35:45.223Z,41.83
2023-02-03T23:38:13.608Z,45.67
2023-02-03T23:40:41.661Z,44.70
2023-02-03T23:43:10.000Z,41.15
2023-02-03T23:45:39.478Z,38.00
2023-02-03T23:48:08.131Z,37.55
2023-02-03T23:50:36.356Z,38.30
2023-02-03T23:53:04.403Z,44.75
2023-02-03T23:55:32.580Z,42.78
2023-02-03T23:58:00.593Z,44.15
